Bangkok (Don Mueang), Thailand

12:39 AM ICT on September 27, 2016 (GMT +0700)
Soi Ekkarat 15/2 | | Change Station

Elev 19 ft 13.96 °N, 100.60 °E | Updated 3 minutes ago

Light Rain
Light Rain
83.3 °F
Feels Like 95 °F
N
0.6
Wind Variable Wind from SW
Gusts 1.9 mph

Today
High -- | Low -- °F
--% Chance of Precip.
Yesterday
High -- | Low -- °F
Precip. -- in
Pressure 29.80 in
Visibility 5.6 miles
Clouds Few 2000 ft
Scattered Clouds 4000 ft
Heat Index 95 °F
Dew Point 79 °F
Humidity 87%
Rainfall 0.00 in
Snow Depth Not available.
6:06 AM 6:10 PM
Waning Crescent, 17% visible
METAR VTBD 261730Z 00000KT 9000 -RA FEW020 SCT040 26/26 Q1009 NOSIG
Pressure 29.80 in
Visibility 5.6 miles
Clouds Few 2000 ft
Scattered Clouds 4000 ft
Heat Index 95 °F
Dew Point 79 °F
Humidity 87%
Rainfall 0.00 in
Snow Depth Not available.
6:06 AM 6:10 PM
Waning Crescent, 17% visible
METAR VTBD 261730Z 00000KT 9000 -RA FEW020 SCT040 26/26 Q1009 NOSIG

10-Day Weather Forecast

No radar image for this location.
×

Almanac

Astronomy

Sep. 27, 2016 Rise Set
Actual Time
Civil Twilight
Nautical Twilight
Astronomical Twilight
Moon
Length of Visible Light
Length of Day
Tomorrow will be .
, % of the Moon is Illuminated

Today's Extremes

Country Highs Country Lows

Community

WunderPhotos

Upload Photos

1,941,936 photos uploaded!

WunderBlog® & News

Nearby

Air Quality

  Air Quality AQ Index Pollutant
Not available.

Snow Depth

Station Depth Elevation

Earthquake Activity

City Distance Mag. Time & Date
Minimum magnitude displayed is 2.5.

Coastal Water Temperatures

Place Temperature

Stations

Nearby Weather Stations

Station Location Temp. Windchill Dew Point Humidity Wind Precip. Elev Updated Type